Time;durP1;ratioP1;P1;durP2;ratioP2;P2;SDS_P1;SDS_P2;PMS_P1;PMS_P2;Temp;Humidity;BMP_temperature;BMP_pressure;BME280_temperature;BME280_humidity;BME280_pressure;Samples;Min_cycle;Max_cycle;Signal;HPM_P1;HPM_P2
2023/06/14 00:00:05;;;;;;;13.88;5.90;;;;;;;18.66;91.15;100985.94;5007080;28;20095;-74
2023/06/14 00:02:32;;;;;;;12.10;5.70;;;;;;;18.59;92.06;100984.19;5013419;28;20425;-74
2023/06/14 00:04:59;;;;;;;12.98;6.05;;;;;;;18.57;91.64;100985.94;5010656;28;20046;-74
2023/06/14 00:07:36;;;;;;;12.68;5.50;;;;;;;18.54;91.80;100987.66;5010368;28;20053;-74
2023/06/14 00:10:04;;;;;;;13.70;6.07;;;;;;;18.53;91.91;100988.88;5004425;28;20702;-73
2023/06/14 00:12:31;;;;;;;10.65;5.00;;;;;;;18.50;91.64;100987.00;5013649;28;20463;-76
2023/06/14 00:14:58;;;;;;;11.25;5.78;;;;;;;18.50;91.30;100991.84;5003697;28;20045;-74
2023/06/14 00:17:24;;;;;;;12.13;5.60;;;;;;;18.45;91.03;100992.44;5009951;28;20054;-74
2023/06/14 00:19:52;;;;;;;15.95;5.75;;;;;;;18.35;92.91;100994.47;5015196;28;20050;-74
2023/06/14 00:22:19;;;;;;;13.20;5.25;;;;;;;18.33;91.53;100990.56;5009529;28;20045;-74
2023/06/14 00:24:46;;;;;;;14.68;5.53;;;;;;;18.28;92.65;100996.78;5008399;28;20085;-73
2023/06/14 00:27:13;;;;;;;12.80;5.40;;;;;;;18.26;92.66;101011.31;5008984;28;20509;-75
2023/06/14 00:29:40;;;;;;;12.95;5.55;;;;;;;18.18;91.84;101001.59;5013959;28;20045;-74
2023/06/14 00:32:07;;;;;;;12.73;5.32;;;;;;;18.16;92.24;100998.44;5008530;28;20082;-73
2023/06/14 00:34:34;;;;;;;14.18;5.32;;;;;;;18.12;92.08;101003.44;5009227;28;20408;-73
2023/06/14 00:37:01;;;;;;;11.75;5.50;;;;;;;18.13;91.25;101007.03;5014626;28;20211;-75
2023/06/14 00:39:27;;;;;;;9.88;5.43;;;;;;;18.10;91.14;101011.56;5006837;28;20061;-74
2023/06/14 00:41:54;;;;;;;11.65;4.80;;;;;;;18.08;91.16;101010.44;5014077;28;20057;-73
2023/06/14 00:44:21;;;;;;;12.30;5.20;;;;;;;18.06;91.27;101012.97;5009362;28;20770;-73
2023/06/14 00:46:48;;;;;;;10.77;5.00;;;;;;;18.00;91.93;101011.97;5008783;28;20145;-74
2023/06/14 00:49:16;;;;;;;10.95;4.38;;;;;;;17.99;90.41;101008.38;5017165;28;20534;-71
2023/06/14 00:51:43;;;;;;;10.13;5.30;;;;;;;17.97;91.04;101004.47;5009377;28;20096;-73
2023/06/14 00:54:10;;;;;;;12.15;4.82;;;;;;;17.91;91.40;101011.91;5006107;28;20556;-74
2023/06/14 00:56:37;;;;;;;12.63;4.85;;;;;;;17.91;90.96;101012.69;5007587;28;20401;-73
2023/06/14 00:59:04;;;;;;;10.57;4.70;;;;;;;17.84;90.61;101014.97;5009321;28;20050;-75
2023/06/14 01:01:33;;;;;;;11.43;4.90;;;;;;;17.82;90.32;101011.88;5008767;28;20053;-71
2023/06/14 01:04:03;;;;;;;15.50;5.25;;;;;;;17.82;90.88;101014.69;5012847;28;20096;-76
2023/06/14 01:06:51;;;;;;;11.38;4.95;;;;;;;17.80;91.34;101017.16;5008714;28;20115;-74
2023/06/14 01:09:57;;;;;;;13.43;5.07;;;;;;;17.75;91.15;101020.56;5004694;28;20103;-70
2023/06/14 01:12:39;;;;;;;9.85;4.85;;;;;;;17.71;91.69;101019.91;5008648;28;20084;-73
2023/06/14 01:15:07;;;;;;;12.20;5.40;;;;;;;17.66;91.42;101023.31;5008788;28;20073;-72
2023/06/14 01:17:34;;;;;;;11.50;5.00;;;;;;;17.62;91.01;101034.69;5010493;28;20089;-73
2023/06/14 01:20:09;;;;;;;10.88;4.47;;;;;;;17.62;91.62;101031.09;5014482;28;20054;-75
2023/06/14 01:22:36;;;;;;;12.25;5.07;;;;;;;17.57;90.86;101021.22;5008398;28;20053;-74
2023/06/14 01:25:03;;;;;;;13.50;5.03;;;;;;;17.57;91.85;101037.31;5012654;28;20520;-76
2023/06/14 01:27:29;;;;;;;8.77;4.72;;;;;;;17.55;91.17;101034.19;5008336;28;20081;-76
2023/06/14 01:29:56;;;;;;;11.40;5.07;;;;;;;17.52;90.90;101026.66;5008685;28;20505;-78
2023/06/14 01:32:26;;;;;;;9.88;4.25;;;;;;;17.49;90.87;101034.00;5008497;28;20060;-73
2023/06/14 01:34:53;;;;;;;13.75;5.10;;;;;;;17.48;91.75;101023.97;5008651;28;20057;-75
2023/06/14 01:37:21;;;;;;;11.27;4.55;;;;;;;17.46;91.29;101031.28;5008817;28;20050;-75
2023/06/14 01:39:49;;;;;;;9.25;4.68;;;;;;;17.34;93.95;101025.28;5006742;28;20049;-72
2023/06/14 01:42:16;;;;;;;12.93;4.50;;;;;;;17.38;91.79;101030.00;5006487;28;20144;-74
2023/06/14 01:44:44;;;;;;;9.57;4.32;;;;;;;17.32;92.24;101032.63;5014676;28;20473;-75
2023/06/14 01:47:12;;;;;;;13.15;4.70;;;;;;;17.28;92.36;101032.72;5007094;28;20049;-75
2023/06/14 01:49:38;;;;;;;11.82;5.25;;;;;;;17.22;94.33;101022.53;5016303;28;20108;-75
2023/06/14 01:52:05;;;;;;;12.23;4.85;;;;;;;17.16;93.00;101025.16;5007301;28;20062;-75
2023/06/14 01:54:32;;;;;;;9.68;4.45;;;;;;;17.17;93.29;101025.91;5011127;28;20046;-73
2023/06/14 01:56:59;;;;;;;13.80;4.97;;;;;;;17.15;92.75;101026.38;5011557;28;20100;-74
2023/06/14 01:59:25;;;;;;;11.38;4.88;;;;;;;17.09;93.54;101030.97;5011295;28;20085;-75
2023/06/14 02:01:52;;;;;;;10.73;4.32;;;;;;;17.08;93.95;101023.78;5010865;28;20060;-73
2023/06/14 02:04:18;;;;;;;12.48;4.93;;;;;;;17.05;93.67;101029.53;5010679;28;20046;-73
2023/06/14 02:06:45;;;;;;;12.40;4.68;;;;;;;16.98;93.72;101024.94;5005695;28;20832;-74
2023/06/14 02:09:11;;;;;;;11.00;4.60;;;;;;;16.97;93.74;101031.78;5001843;28;20061;-70
2023/06/14 02:11:38;;;;;;;11.30;4.13;;;;;;;16.94;94.05;101031.91;5005128;28;20054;-75
2023/06/14 02:14:10;;;;;;;11.05;4.47;;;;;;;16.91;94.93;101027.22;5007668;28;20116;-72
2023/06/14 02:16:38;;;;;;;11.98;4.60;;;;;;;16.84;94.84;101028.22;5007772;28;20451;-74
2023/06/14 02:19:17;;;;;;;10.40;4.90;;;;;;;16.73;97.52;101018.59;5013302;28;20100;-74
2023/06/14 02:21:45;;;;;;;11.07;4.60;;;;;;;16.79;95.40;101026.00;5007666;28;20096;-74
2023/06/14 02:24:17;;;;;;;13.07;4.68;;;;;;;16.73;97.08;101027.81;5003033;28;20054;-73
2023/06/14 02:26:44;;;;;;;9.30;3.70;;;;;;;16.69;97.17;101029.97;5007989;28;20054;-73
2023/06/14 02:29:12;;;;;;;10.10;4.63;;;;;;;16.61;97.27;101025.81;5007328;28;20076;-76
2023/06/14 02:31:39;;;;;;;9.25;4.40;;;;;;;16.53;96.89;101030.09;5011726;28;20466;-74
2023/06/14 02:34:05;;;;;;;12.30;4.97;;;;;;;16.51;98.66;101032.56;5007199;28;20037;-75
2023/06/14 02:36:32;;;;;;;9.88;4.45;;;;;;;16.52;98.07;101034.16;5007145;28;20140;-75
2023/06/14 02:38:58;;;;;;;10.88;4.18;;;;;;;16.47;97.61;101033.94;5006534;28;20077;-76
2023/06/14 02:41:25;;;;;;;7.93;3.88;;;;;;;16.42;97.35;101026.06;5007185;28;20096;-75
2023/06/14 02:43:53;;;;;;;12.93;4.95;;;;;;;16.38;98.54;101031.81;5006285;28;20073;-74
2023/06/14 02:46:20;;;;;;;9.70;4.45;;;;;;;16.38;99.49;101034.59;5008146;28;20065;-74
2023/06/14 02:48:46;;;;;;;9.88;3.85;;;;;;;16.37;99.70;101040.66;5014685;28;20232;-76
2023/06/14 02:51:13;;;;;;;10.13;4.32;;;;;;;16.33;100.00;101029.53;5007137;28;20062;-75
2023/06/14 02:53:40;;;;;;;8.30;4.25;;;;;;;16.32;99.02;101033.59;5006262;28;20515;-74
2023/06/14 02:56:07;;;;;;;8.70;4.40;;;;;;;16.22;100.00;101040.28;5004962;28;20136;-75
2023/06/14 02:58:33;;;;;;;10.82;4.28;;;;;;;16.23;98.83;101032.63;5007575;28;20760;-73
2023/06/14 03:01:03;;;;;;;10.30;4.50;;;;;;;16.20;100.00;101037.13;5005132;28;20531;-73
2023/06/14 03:03:30;;;;;;;11.68;4.60;;;;;;;16.17;100.00;101043.63;5004941;28;20057;-74
2023/06/14 03:05:57;;;;;;;8.18;4.03;;;;;;;16.20;99.35;101053.19;5004246;28;20054;-73
2023/06/14 03:08:27;;;;;;;10.55;4.40;;;;;;;16.13;100.00;101050.63;4999928;28;20073;-74
2023/06/14 03:10:55;;;;;;;11.05;4.50;;;;;;;16.09;100.00;101056.31;5006142;28;20570;-74
2023/06/14 03:13:23;;;;;;;10.90;4.35;;;;;;;16.07;100.00;101064.38;5007456;28;20050;-75
2023/06/14 03:15:52;;;;;;;13.00;4.63;;;;;;;16.06;100.00;101060.03;5013233;28;20042;-76
2023/06/14 03:18:19;;;;;;;10.90;4.95;;;;;;;16.08;100.00;101065.19;5014885;28;20144;-73
2023/06/14 03:20:45;;;;;;;12.25;4.50;;;;;;;16.05;100.00;101058.44;4999641;28;20100;-75
2023/06/14 03:23:12;;;;;;;9.20;4.43;;;;;;;16.01;100.00;101074.59;5006649;28;20148;-73
2023/06/14 03:25:41;;;;;;;9.68;4.18;;;;;;;15.99;100.00;101073.47;5006950;28;20100;-74
2023/06/14 03:28:08;;;;;;;10.88;4.50;;;;;;;15.95;100.00;101073.59;5006876;28;20053;-74
2023/06/14 03:30:34;;;;;;;13.45;4.47;;;;;;;15.95;100.00;101079.19;5002197;28;20085;-73
2023/06/14 03:33:01;;;;;;;10.60;4.25;;;;;;;15.91;100.00;101077.72;5012649;28;20531;-75
2023/06/14 03:35:29;;;;;;;12.57;4.72;;;;;;;15.85;100.00;101074.69;5006487;28;20049;-75
2023/06/14 03:37:55;;;;;;;13.32;5.00;;;;;;;15.89;100.00;101089.38;5006836;28;20050;-74
2023/06/14 03:40:23;;;;;;;8.30;3.75;;;;;;;15.90;100.00;101093.75;5005421;28;20513;-76
2023/06/14 03:42:50;;;;;;;12.23;4.47;;;;;;;15.89;100.00;101094.97;5010074;28;20132;-74
2023/06/14 03:45:16;;;;;;;12.40;4.32;;;;;;;15.86;100.00;101092.28;5006578;28;20137;-75
2023/06/14 03:47:43;;;;;;;12.93;4.70;;;;;;;15.86;100.00;101098.66;5008693;28;20132;-73
2023/06/14 03:50:10;;;;;;;8.95;3.85;;;;;;;15.85;100.00;101099.91;5012785;28;20384;-74
2023/06/14 03:52:37;;;;;;;11.02;4.28;;;;;;;15.86;100.00;101098.66;5010495;28;20488;-73
2023/06/14 03:55:04;;;;;;;12.07;4.38;;;;;;;15.85;100.00;101105.53;5009983;28;20077;-74
2023/06/14 03:57:34;;;;;;;9.48;3.58;;;;;;;15.85;100.00;101119.53;5010511;28;20125;-69
2023/06/14 04:00:01;;;;;;;8.88;4.32;;;;;;;15.80;100.00;101113.69;5008605;28;20084;-75
2023/06/14 04:02:30;;;;;;;10.85;4.50;;;;;;;15.83;100.00;101116.38;5011015;28;20166;-74
2023/06/14 04:04:57;;;;;;;13.00;4.22;;;;;;;15.79;100.00;101118.50;5002666;28;20143;-75
2023/06/14 04:07:24;;;;;;;8.82;4.07;;;;;;;15.78;100.00;101124.56;5010055;28;20053;-75
2023/06/14 04:09:51;;;;;;;9.52;4.20;;;;;;;15.73;100.00;101125.88;5014936;28;20068;-77
2023/06/14 04:12:17;;;;;;;11.60;3.60;;;;;;;15.70;100.00;101123.97;5011148;28;20133;-74
2023/06/14 04:14:44;;;;;;;11.02;4.35;;;;;;;15.75;100.00;101126.22;5000312;28;20567;-74
2023/06/14 04:17:11;;;;;;;13.40;4.38;;;;;;;15.75;100.00;101123.44;5010554;28;20070;-74
2023/06/14 04:19:37;;;;;;;8.40;3.83;;;;;;;15.78;100.00;101135.75;5016910;28;20046;-75
2023/06/14 04:22:04;;;;;;;9.63;4.10;;;;;;;15.78;100.00;101142.16;5011976;28;20076;-73
2023/06/14 04:24:32;;;;;;;13.15;4.60;;;;;;;15.79;100.00;101145.75;5010091;28;20734;-75
2023/06/14 04:27:00;;;;;;;11.32;4.20;;;;;;;15.79;100.00;101151.34;5009868;28;20547;-74
2023/06/14 04:29:29;;;;;;;9.38;3.95;;;;;;;15.73;100.00;101147.53;5009653;28;20049;-75
2023/06/14 04:31:59;;;;;;;11.15;4.28;;;;;;;15.75;100.00;101150.66;5008950;28;20500;-74
2023/06/14 04:34:29;;;;;;;13.07;4.40;;;;;;;15.75;100.00;101145.06;5009364;28;20582;-74
2023/06/14 04:36:56;;;;;;;13.10;4.38;;;;;;;15.77;100.00;101159.44;5008140;28;20124;-74
2023/06/14 04:39:22;;;;;;;8.98;4.13;;;;;;;15.80;100.00;101150.91;5015137;28;20467;-74
2023/06/14 04:41:56;;;;;;;10.23;4.40;;;;;;;15.82;100.00;101162.47;5008619;28;20633;-72
2023/06/14 04:44:29;;;;;;;11.48;4.53;;;;;;;15.87;100.00;101167.53;5009922;28;20049;-74
2023/06/14 04:46:58;;;;;;;10.38;4.38;;;;;;;15.84;100.00;101159.22;5009335;28;20086;-74
2023/06/14 04:49:27;;;;;;;12.43;4.20;;;;;;;15.94;100.00;101167.34;5017186;28;20084;-74
2023/06/14 04:52:01;;;;;;;14.02;4.10;;;;;;;15.98;100.00;101176.44;5010591;28;20042;-74
2023/06/14 04:54:31;;;;;;;9.50;4.10;;;;;;;16.00;100.00;101171.16;5000133;28;20052;-73
2023/06/14 04:56:58;;;;;;;13.98;4.63;;;;;;;16.05;100.00;101176.25;5013948;28;20048;-70
2023/06/14 04:59:24;;;;;;;9.23;3.92;;;;;;;16.13;100.00;101176.84;5004305;28;20531;-75
2023/06/14 05:01:53;;;;;;;11.95;4.35;;;;;;;16.16;100.00;101173.91;5000833;28;20161;-73
2023/06/14 05:04:21;;;;;;;11.45;4.00;;;;;;;16.23;100.00;101178.53;5008191;28;20054;-75
2023/06/14 05:06:48;;;;;;;10.30;4.57;;;;;;;16.28;100.00;101178.03;5009683;28;20084;-74
2023/06/14 05:09:18;;;;;;;9.52;4.07;;;;;;;16.34;100.00;101181.84;5008736;28;20053;-74
2023/06/14 05:11:44;;;;;;;11.18;3.80;;;;;;;16.41;100.00;101174.00;5003537;28;20141;-73
2023/06/14 05:14:11;;;;;;;9.90;4.03;;;;;;;16.47;100.00;101179.84;5010975;28;20088;-75
2023/06/14 05:16:39;;;;;;;16.17;5.55;;;;;;;16.53;100.00;101178.84;5006177;28;20046;-74
2023/06/14 05:19:06;;;;;;;9.98;4.00;;;;;;;16.58;100.00;101178.28;5016667;28;20042;-73
2023/06/14 05:21:34;;;;;;;15.70;4.70;;;;;;;16.58;100.00;101177.50;5007973;28;20077;-73
2023/06/14 05:24:08;;;;;;;15.27;4.47;;;;;;;16.65;100.00;101182.91;5014917;28;20807;-73
2023/06/14 05:26:36;;;;;;;12.32;4.18;;;;;;;16.71;100.00;101179.06;5008494;28;20104;-74
2023/06/14 05:29:03;;;;;;;10.55;4.18;;;;;;;16.78;100.00;101189.31;5008609;28;20492;-73
2023/06/14 05:31:29;;;;;;;8.88;4.35;;;;;;;16.83;100.00;101189.53;5011822;28;20064;-78
2023/06/14 05:33:56;;;;;;;11.98;4.43;;;;;;;16.88;100.00;101183.34;5013885;28;20133;-75
2023/06/14 05:36:23;;;;;;;11.65;4.10;;;;;;;16.92;100.00;101178.41;5009819;28;20471;-75
2023/06/14 05:38:57;;;;;;;11.05;4.43;;;;;;;17.04;100.00;101186.03;5007617;28;20180;-75
2023/06/14 05:41:28;;;;;;;10.40;3.70;;;;;;;17.10;100.00;101189.88;5007731;28;20046;-74
2023/06/14 05:43:55;;;;;;;12.18;4.07;;;;;;;17.15;100.00;101194.16;5008751;28;20140;-74
2023/06/14 05:46:25;;;;;;;11.05;4.30;;;;;;;17.24;100.00;101195.03;5017245;28;20050;-75
2023/06/14 05:48:52;;;;;;;13.23;4.45;;;;;;;17.31;100.00;101199.63;5014624;28;20500;-75
2023/06/14 05:51:19;;;;;;;13.68;4.15;;;;;;;17.39;100.00;101203.78;5006272;28;20108;-77
2023/06/14 05:53:49;;;;;;;14.57;4.55;;;;;;;17.42;100.00;101200.84;5004635;28;20147;-77
2023/06/14 05:56:17;;;;;;;11.93;3.80;;;;;;;17.47;100.00;101204.31;5005948;28;20137;-71
2023/06/14 05:58:45;;;;;;;8.73;3.85;;;;;;;17.56;100.00;101210.84;5011056;28;20073;-74
2023/06/14 06:01:13;;;;;;;8.55;4.25;;;;;;;17.62;100.00;101208.22;5003590;28;20053;-73
2023/06/14 06:03:40;;;;;;;9.32;4.35;;;;;;;17.68;100.00;101207.19;5005525;28;20065;-75
2023/06/14 06:06:08;;;;;;;8.80;3.90;;;;;;;17.72;100.00;101218.31;5009480;28;20058;-74
2023/06/14 06:08:35;;;;;;;14.27;4.75;;;;;;;17.77;100.00;101212.91;5005542;28;20590;-74
2023/06/14 06:11:01;;;;;;;9.30;3.95;;;;;;;17.83;100.00;101221.53;5006558;28;20129;-74
2023/06/14 06:13:28;;;;;;;13.50;3.80;;;;;;;17.89;100.00;101216.91;5005055;28;20534;-73
2023/06/14 06:15:56;;;;;;;11.75;4.22;;;;;;;17.95;100.00;101218.72;4999809;28;20054;-73
2023/06/14 06:18:23;;;;;;;11.98;3.67;;;;;;;18.03;100.00;101222.84;5007565;28;20056;-72
2023/06/14 06:20:49;;;;;;;9.40;3.53;;;;;;;18.09;100.00;101218.19;5012007;28;20108;-71
2023/06/14 06:23:16;;;;;;;7.30;3.40;;;;;;;18.17;100.00;101219.53;5011558;28;20164;-73
2023/06/14 06:25:43;;;;;;;10.70;4.07;;;;;;;18.24;100.00;101213.63;5007852;28;20492;-71
2023/06/14 06:28:09;;;;;;;10.00;3.90;;;;;;;18.32;100.00;101222.56;5007625;28;20058;-72
2023/06/14 06:30:36;;;;;;;10.90;4.25;;;;;;;18.35;100.00;101214.00;5004148;28;20049;-72
2023/06/14 06:33:03;;;;;;;11.40;3.90;;;;;;;18.41;100.00;101215.00;5011584;28;20492;-74
2023/06/14 06:35:30;;;;;;;10.35;3.80;;;;;;;18.50;100.00;101223.47;5005037;28;20054;-70
2023/06/14 06:37:57;;;;;;;9.60;3.70;;;;;;;18.55;100.00;101225.72;5005838;28;20108;-73
2023/06/14 06:40:23;;;;;;;11.13;3.80;;;;;;;18.63;100.00;101229.06;5010539;28;20147;-72
2023/06/14 06:42:50;;;;;;;10.30;3.60;;;;;;;18.72;100.00;101234.72;5009433;28;20052;-71
2023/06/14 06:45:16;;;;;;;9.55;3.88;;;;;;;18.77;100.00;101239.81;5007609;28;20606;-70
2023/06/14 06:47:43;;;;;;;8.57;3.50;;;;;;;18.81;100.00;101241.25;5009936;28;20050;-71
2023/06/14 06:50:10;;;;;;;10.50;4.32;;;;;;;18.84;100.00;101251.56;5012255;28;20054;-71
2023/06/14 06:52:36;;;;;;;10.25;4.00;;;;;;;18.90;100.00;101251.78;5005357;28;20160;-73
2023/06/14 06:55:03;;;;;;;12.20;4.05;;;;;;;18.98;99.95;101247.41;5005696;28;20060;-70
2023/06/14 06:57:30;;;;;;;11.48;4.07;;;;;;;19.04;100.00;101254.03;5006354;28;20081;-71
2023/06/14 06:59:57;;;;;;;8.60;3.28;;;;;;;19.08;99.37;101247.00;5005732;28;20081;-72
2023/06/14 07:02:24;;;;;;;12.60;3.65;;;;;;;19.08;97.53;101240.56;5002901;28;20085;-72
2023/06/14 07:04:51;;;;;;;8.55;3.00;;;;;;;19.03;96.70;101250.41;5008334;28;20832;-68
2023/06/14 07:07:18;;;;;;;13.15;3.75;;;;;;;19.06;96.80;101257.16;5004611;28;20049;-72
2023/06/14 07:09:45;;;;;;;12.55;3.63;;;;;;;18.99;95.93;101265.88;5006071;28;20602;-71
2023/06/14 07:12:12;;;;;;;7.85;3.97;;;;;;;18.98;96.01;101259.47;5003467;28;20058;-71
2023/06/14 07:14:39;;;;;;;9.32;3.78;;;;;;;18.97;96.56;101259.94;5003641;28;20078;-71
2023/06/14 07:17:05;;;;;;;7.95;2.97;;;;;;;19.04;97.63;101256.84;5007393;28;20049;-70
2023/06/14 07:19:33;;;;;;;10.18;3.72;;;;;;;19.06;97.90;101257.94;5014190;28;20610;-72
2023/06/14 07:21:59;;;;;;;10.10;3.63;;;;;;;19.12;96.37;101272.22;5009850;28;20057;-73
2023/06/14 07:24:28;;;;;;;9.88;3.20;;;;;;;19.16;96.26;101264.38;5002595;28;20054;-70
2023/06/14 07:26:56;;;;;;;8.50;2.83;;;;;;;19.20;96.31;101260.19;5008759;28;20187;-71
2023/06/14 07:29:22;;;;;;;7.65;2.72;;;;;;;19.25;95.56;101272.91;5010140;28;20506;-70
2023/06/14 07:31:49;;;;;;;6.25;2.90;;;;;;;19.21;94.50;101266.63;5010181;28;20053;-73
2023/06/14 07:34:16;;;;;;;7.28;3.05;;;;;;;19.25;95.72;101261.63;5010286;28;20081;-75
2023/06/14 07:36:44;;;;;;;7.28;2.70;;;;;;;19.29;94.77;101265.06;5011266;28;20046;-72
2023/06/14 07:39:11;;;;;;;10.63;3.00;;;;;;;19.38;94.17;101263.06;5010643;28;20076;-73
2023/06/14 07:41:37;;;;;;;13.25;2.95;;;;;;;19.42;94.29;101260.91;5011709;28;20053;-70
2023/06/14 07:44:04;;;;;;;9.05;3.78;;;;;;;19.52;93.62;101270.19;5008794;28;20049;-70
2023/06/14 07:46:31;;;;;;;13.68;3.78;;;;;;;19.52;93.21;101258.91;5005314;28;20054;-69
2023/06/14 07:48:57;;;;;;;13.43;3.28;;;;;;;19.62;93.98;101261.28;5007913;28;20103;-69
2023/06/14 07:51:24;;;;;;;9.52;3.67;;;;;;;19.66;93.90;101253.47;5007461;28;20562;-69
2023/06/14 07:53:51;;;;;;;9.50;3.10;;;;;;;19.72;94.67;101257.22;5012829;28;20100;-69
2023/06/14 07:56:17;;;;;;;8.35;3.60;;;;;;;19.82;95.42;101260.84;5014166;28;20053;-67
2023/06/14 07:58:44;;;;;;;6.63;3.13;;;;;;;19.87;94.58;101260.22;5005260;28;20651;-68
2023/06/14 08:01:11;;;;;;;8.38;3.50;;;;;;;19.89;94.25;101263.38;5032783;28;20842;-70
2023/06/14 08:03:38;;;;;;;12.77;4.22;;;;;;;19.97;94.45;101267.44;5001731;28;20082;-67
2023/06/14 08:06:06;;;;;;;12.50;3.30;;;;;;;19.97;93.39;101258.97;5009597;28;20046;-69
2023/06/14 08:08:33;;;;;;;12.68;3.10;;;;;;;19.96;93.29;101263.06;5030430;28;20079;-69
2023/06/14 08:10:59;;;;;;;8.18;3.08;;;;;;;20.08;93.81;101276.22;5000834;28;20084;-73
2023/06/14 08:13:26;;;;;;;6.55;2.92;;;;;;;20.09;91.49;101262.91;5009407;28;20573;-75
2023/06/14 08:15:53;;;;;;;9.65;3.47;;;;;;;20.01;90.57;101273.72;4999639;28;20504;-72
2023/06/14 08:18:19;;;;;;;6.68;2.70;;;;;;;20.09;92.55;101275.00;5018476;28;20050;-72
2023/06/14 08:20:46;;;;;;;8.55;2.80;;;;;;;20.18;91.23;101277.03;4997186;28;20085;-73
2023/06/14 08:23:13;;;;;;;13.35;2.03;;;;;;;20.09;84.86;101274.19;5002503;28;20085;-69
2023/06/14 08:25:39;;;;;;;6.38;2.83;;;;;;;20.08;85.27;101281.09;4999699;28;20587;-67
2023/06/14 08:28:06;;;;;;;6.63;2.35;;;;;;;20.04;83.50;101284.06;5005282;28;20056;-67
2023/06/14 08:30:32;;;;;;;3.53;2.35;;;;;;;20.05;84.42;101277.16;5001471;28;20049;-67
2023/06/14 08:32:59;;;;;;;5.97;2.72;;;;;;;20.08;83.84;101264.94;4999097;28;20042;-72
2023/06/14 08:35:41;;;;;;;5.35;2.20;;;;;;;20.09;84.24;101269.34;5007508;28;20042;-69
2023/06/14 08:38:07;;;;;;;4.03;2.20;;;;;;;20.19;84.17;101278.59;4999691;28;20042;-72
2023/06/14 08:40:38;;;;;;;4.70;2.50;;;;;;;20.20;80.63;101272.47;5001343;28;20578;-71
2023/06/14 08:43:05;;;;;;;7.75;2.40;;;;;;;20.38;82.33;101275.31;5003415;28;20432;-69
2023/06/14 08:45:32;;;;;;;3.10;1.90;;;;;;;20.54;82.85;101277.81;4998620;28;20053;-72
2023/06/14 08:47:59;;;;;;;5.70;2.10;;;;;;;20.52;80.67;101269.03;5009923;28;20181;-71
2023/06/14 08:50:31;;;;;;;5.88;2.10;;;;;;;20.59;78.71;101273.56;4999795;28;20083;-72
2023/06/14 08:53:02;;;;;;;5.15;2.40;;;;;;;20.60;76.42;101275.13;4997420;28;22079;-69
2023/06/14 08:55:30;;;;;;;3.75;1.88;;;;;;;20.66;77.28;101264.78;4994192;28;20072;-71
2023/06/14 08:58:03;;;;;;;4.13;2.13;;;;;;;20.74;78.45;101274.47;4996144;28;20147;-70
2023/06/14 09:00:32;;;;;;;3.53;1.98;;;;;;;20.82;76.66;101270.84;5000920;28;20049;-69
2023/06/14 09:02:59;;;;;;;7.15;2.20;;;;;;;20.89;76.26;101269.75;5001527;28;20061;-70
2023/06/14 09:05:27;;;;;;;6.47;1.90;;;;;;;20.95;74.17;101271.47;5000367;28;20062;-69
2023/06/14 09:08:00;;;;;;;5.03;1.67;;;;;;;20.99;70.95;101274.91;4999216;28;20080;-70
2023/06/14 09:10:33;;;;;;;2.42;1.38;;;;;;;20.86;69.65;101271.44;5002238;28;20060;-69
2023/06/14 09:13:01;;;;;;;4.07;1.90;;;;;;;20.88;69.40;101268.16;4997904;28;20141;-70
2023/06/14 09:15:29;;;;;;;3.92;1.45;;;;;;;20.99;70.49;101268.50;5000746;28;20054;-69
2023/06/14 09:17:56;;;;;;;4.68;1.90;;;;;;;20.97;70.10;101268.97;5000417;28;20504;-68
2023/06/14 09:20:24;;;;;;;5.63;1.42;;;;;;;21.06;71.04;101279.44;4999750;28;20061;-70
2023/06/14 09:22:51;;;;;;;3.47;1.80;;;;;;;21.11;71.25;101288.06;5000498;28;20172;-70
2023/06/14 09:25:18;;;;;;;2.75;1.60;;;;;;;21.20;71.83;101285.19;5005057;28;20109;-71
2023/06/14 09:28:06;;;;;;;4.13;1.80;;;;;;;21.20;70.94;101288.00;5001086;28;20046;-70
2023/06/14 09:30:33;;;;;;;2.33;1.60;;;;;;;21.13;70.96;101274.22;5003724;28;20056;-69
2023/06/14 09:33:00;;;;;;;3.58;2.13;;;;;;;21.14;72.48;101275.00;5006570;28;20069;-72
2023/06/14 09:35:30;;;;;;;2.70;1.50;;;;;;;21.23;71.51;101292.72;5002669;28;20045;-70
2023/06/14 09:37:57;;;;;;;3.10;1.50;;;;;;;21.20;68.30;101298.56;5013146;28;20073;-70
2023/06/14 09:40:24;;;;;;;4.30;1.48;;;;;;;21.27;70.09;101284.84;5005762;28;20058;-70
2023/06/14 09:42:51;;;;;;;10.10;1.63;;;;;;;21.30;71.31;101289.53;5008792;28;20050;-69
2023/06/14 09:45:22;;;;;;;3.47;1.30;;;;;;;21.46;69.08;101296.84;5005526;28;20061;-70
2023/06/14 09:47:49;;;;;;;3.10;1.30;;;;;;;21.45;68.75;101296.09;5036895;28;20133;-70
2023/06/14 09:50:32;;;;;;;4.45;1.45;;;;;;;21.35;67.37;101288.13;5007216;28;20058;-71
2023/06/14 09:53:05;;;;;;;3.33;1.42;;;;;;;21.43;67.16;101292.19;5004720;28;20081;-69
2023/06/14 09:55:35;;;;;;;1.85;1.10;;;;;;;21.52;66.21;101292.91;5006402;28;20054;-68
2023/06/14 09:58:06;;;;;;;4.50;1.40;;;;;;;21.53;65.42;101299.34;5006288;28;20112;-70
2023/06/14 10:00:34;;;;;;;2.67;1.63;;;;;;;21.66;66.80;101291.44;5009402;28;20046;-69
2023/06/14 10:03:10;;;;;;;5.28;2.65;;;;;;;21.67;67.37;101293.03;4982285;28;20449;-70
2023/06/14 10:05:37;;;;;;;4.32;1.48;;;;;;;21.72;66.21;101292.34;5004720;28;20062;-71
2023/06/14 10:08:10;;;;;;;2.30;1.17;;;;;;;21.74;66.27;101284.94;4985002;28;20066;-70
2023/06/14 10:10:39;;;;;;;3.47;1.30;;;;;;;21.87;67.52;101287.53;5004909;28;20046;-70
2023/06/14 10:13:07;;;;;;;4.03;1.45;;;;;;;21.87;66.46;101285.47;5010175;28;20076;-69
2023/06/14 10:15:58;;;;;;;4.80;1.60;;;;;;;21.99;66.81;101283.66;5009251;28;20566;-70
2023/06/14 10:18:32;;;;;;;1.23;1.00;;;;;;;21.90;66.73;101295.84;5016226;28;20045;-71
2023/06/14 10:21:17;;;;;;;6.88;1.30;;;;;;;21.98;67.47;101290.59;5007314;28;20140;-70
2023/06/14 10:23:46;;;;;;;6.85;1.80;;;;;;;22.05;67.27;101293.06;5038440;28;20076;-71
2023/06/14 10:26:23;;;;;;;3.03;1.48;;;;;;;22.17;66.27;101288.44;4991241;28;21067;-72
2023/06/14 10:28:58;;;;;;;4.18;1.55;;;;;;;22.22;66.87;101288.53;5005610;28;20050;-70
2023/06/14 10:31:45;;;;;;;8.30;1.70;;;;;;;22.25;66.17;101281.09;5007156;28;20050;-70
2023/06/14 10:34:23;;;;;;;3.63;1.60;;;;;;;22.37;67.60;101285.78;5004717;28;20132;-70
2023/06/14 10:37:12;;;;;;;5.60;1.38;;;;;;;22.56;68.70;101281.47;5003574;28;20057;-70
2023/06/14 10:39:41;;;;;;;4.80;1.90;;;;;;;22.67;67.36;101276.81;5005549;28;20053;-70
2023/06/14 10:42:09;;;;;;;9.23;1.60;;;;;;;22.71;66.21;101287.97;5007353;28;20114;-70
2023/06/14 10:44:42;;;;;;;8.00;1.80;;;;;;;22.61;65.70;101284.41;5007298;28;20053;-69
2023/06/14 10:47:11;;;;;;;4.22;1.60;;;;;;;22.71;66.13;101280.22;5008087;28;20136;-70
2023/06/14 10:49:43;;;;;;;5.20;1.40;;;;;;;22.86;67.29;101277.38;5013993;28;20045;-72
2023/06/14 10:52:18;;;;;;;2.50;1.55;;;;;;;23.04;66.74;101280.03;5013537;28;20050;-71
2023/06/14 10:55:09;;;;;;;;;;;;;;;23.02;62.01;101276.94;5004254;28;20428;-71
2023/06/14 10:57:40;;;;;;;7.38;1.92;;;;;;;23.15;63.01;101272.50;5021432;28;19929;-70
2023/06/14 11:00:16;;;;;;;2.67;1.40;;;;;;;23.18;61.95;101271.53;5002903;28;20085;-71
2023/06/14 11:02:57;;;;;;;13.38;2.15;;;;;;;23.19;63.43;101269.47;5019289;28;20050;-71
2023/06/14 11:05:29;;;;;;;3.72;1.83;;;;;;;23.40;65.06;101266.19;5019512;28;20213;-70
2023/06/14 11:08:07;;;;;;;7.82;1.80;;;;;;;23.52;62.73;101272.81;5018801;28;20045;-73
2023/06/14 11:10:39;;;;;;;4.35;2.03;;;;;;;23.58;59.59;101290.69;5023247;28;20119;-70
2023/06/14 11:13:07;;;;;;;2.78;1.70;;;;;;;23.61;60.25;101282.00;5016593;28;20046;-70
2023/06/14 11:15:38;;;;;;;5.65;1.73;;;;;;;23.73;60.17;101280.88;5013853;28;20057;-71
2023/06/14 11:18:06;;;;;;;5.68;1.92;;;;;;;23.82;60.48;101274.28;5017304;28;20042;-70
2023/06/14 11:20:38;;;;;;;5.35;1.98;;;;;;;23.87;59.40;101290.63;5012168;28;20073;-70
2023/06/14 11:23:05;;;;;;;4.70;1.90;;;;;;;24.08;59.86;101281.63;5016741;28;20515;-71
2023/06/14 11:25:32;;;;;;;4.28;1.70;;;;;;;24.12;60.94;101273.66;5014112;28;20053;-72